Flight Track Log - Related Links

Times and Time Zones

All times are in EDT time to prevent confusion due to time zone crossing. See the N313CR flight status page for this flight to view local times or setup timezone preferences in your user account.


Time Position Orientation Groundspeed Altitude Reporting Facility
EDT Latitude Longitude Course Direction KTS MPH feet Rate Location/Type
Mon 06:50:45 AM 42.6653 -83.4014 85° East 155 178 1,800  Level Cleveland Center
Mon 06:51:28 AM 42.6686 -83.3506 85° East 209 241 2,800 1,813 Climbing Cleveland Center
Mon 06:52:21 AM 42.6433 -83.2817 116° Southeast 242 278 4,700 2,421 Climbing Cleveland Center
Mon 06:53:22 AM 42.6119 -83.1928 116° Southeast 247 284 7,400 2,440 Climbing Cleveland Center
Mon 06:54:51 AM 42.5731 -83.0700 113° Southeast 274 315 10,800 2,260 Climbing Cleveland Center
Mon 06:55:48 AM 42.5417 -82.9731 114° Southeast 281 323 12,900 1,424 Climbing Cleveland Center
Mon 06:56:49 AM 42.5064 -82.8672 114° Southeast 281 323 13,600 1,623 Climbing Cleveland Center
Mon 06:57:50 AM 42.4708 -82.7647 115° Southeast 292 336 16,200 2,500 Climbing Cleveland Center
Mon 06:58:49 AM 42.4392 -82.6653 113° Southeast 292 336 18,600 2,521 Climbing Cleveland Center
Mon 06:59:49 AM 42.4033 -82.5683 117° Southeast 292 336 21,200 2,380 Climbing Cleveland Center
Mon 07:00:50 AM 42.3739 -82.4692 112° Southeast 287 330 23,400 2,100 Climbing Cleveland Center
Mon 07:01:49 AM 42.3631 -82.3619 98° East 281 323 25,400 2,000 Climbing Cleveland Center
Mon 07:02:50 AM 42.3583 -82.2522 93° East 281 323 27,400 1,967 Climbing Cleveland Center
Mon 07:03:51 AM 42.3558 -82.1453 92° East 281 323 29,400 1,780 Climbing Cleveland Center
Mon 07:04:48 AM 42.3508 -82.0442 94° East 281 323 30,900 1,424 Climbing Cleveland Center
Mon 07:05:49 AM 42.3461 -81.9289 93° East 296 341 32,200 1,289 Climbing Cleveland Center
Mon 07:06:49 AM 42.3411 -81.8108 93° East 303 349 33,500 1,190 Climbing Cleveland Center
Mon 07:07:50 AM 42.3361 -81.6928 93° East 313 360 34,600 1,041 Climbing Cleveland Center
Mon 07:08:50 AM 42.3289 -81.5717 95° East 313 360 35,600 1,017 Climbing Cleveland Center
Mon 07:09:48 AM 42.3236 -81.4425 93° East 329 379 36,600 706 Climbing Cleveland Center
Mon 07:10:49 AM 42.3183 -81.3161 93° East 334 384 37,000 200 Climbing Cleveland Center
Mon 07:11:48 AM 42.3128 -81.1783 93° East 355 409 37,000  Level Cleveland Center
Mon 07:12:48 AM 42.3050 -81.0492 95° East 371 427 37,000  Level Cleveland Center
Mon 07:13:49 AM 42.2972 -80.9061 94° East 382 440 37,000  Level Cleveland Center
Mon 07:14:49 AM 42.2892 -80.7544 94° East 387 445 37,000  Level Cleveland Center
Mon 07:15:48 AM 42.2808 -80.6056 94° East 392 451 37,000  Level Cleveland Center
Mon 07:16:50 AM 42.2725 -80.4597 94° East 392 451 37,000  Level Cleveland Center
Mon 07:17:48 AM 42.2619 -80.2969 95° East 387 445 37,000  Level Cleveland Center
Mon 07:18:48 AM 42.2553 -80.1511 93° East 387 445 37,000  Level Cleveland Center
Mon 07:19:49 AM 42.2461 -80.0025 95° East 387 445 37,000  Level Cleveland Center
Mon 07:20:50 AM 42.2369 -79.8542 95° East 387 445 37,000  Level Cleveland Center
Mon 07:21:48 AM 42.2275 -79.7056 95° East 387 445 37,000  Level Cleveland Center
Mon 07:22:49 AM 42.2158 -79.5569 96° East 387 445 37,000  Level Cleveland Center
Mon 07:23:50 AM 42.2083 -79.4058 94° East 387 445 37,000  Level Cleveland Center
Mon 07:24:50 AM 42.1983 -79.2575 95° East 392 451 37,000  Level Cleveland Center
Mon 07:25:48 AM 42.1861 -79.1064 96° East 397 457 37,000  Level Cleveland Center
Mon 07:26:49 AM 42.1508 -78.9644 108° East 397 457 37,000  Level Cleveland Center
Mon 07:27:50 AM 42.1133 -78.8225 110° East 397 457 37,000  Level Cleveland Center
Mon 07:28:48 AM 42.0778 -78.6836 109° East 397 457 37,000  Level Cleveland Center
Mon 07:29:48 AM 42.0419 -78.5422 109° East 402 463 37,000  Level Cleveland Center
Mon 07:30:48 AM 42.0061 -78.4036 109° East 402 463 37,000 -316 Level Cleveland Center
Mon 07:33:17 AM 41.9167 -78.0572 109° East 399 459 35,900 -571 Descending New York Center
Mon 07:34:18 AM 41.8814 -77.9167 109° East 399 459 35,000 -446 Descending New York Center
Mon 07:35:18 AM 41.8439 -77.7761 110° East 399 459 35,000 -393 Level New York Center
Mon 07:36:20 AM 41.8061 -77.6358 110° East 399 459 34,200 -1,008 Descending New York Center
Mon 07:37:17 AM 41.7683 -77.4956 110° East 399 459 33,000 -1,220 Descending New York Center
Mon 07:38:18 AM 41.7322 -77.3586 109° East 399 459 31,800 -1,190 Descending New York Center
Mon 07:39:18 AM 41.6964 -77.2161 109° East 399 459 30,600 -1,190 Descending New York Center
Mon 07:40:19 AM 41.6561 -77.0733 111° Southeast 399 459 29,400 -1,190 Descending New York Center
Mon 07:41:19 AM 41.6178 -76.9336 110° East 399 459 28,200 -1,220 Descending New York Center
Mon 07:42:17 AM 41.5789 -76.7942 110° East 399 459 27,000 -1,169 Descending New York Center
Mon 07:43:17 AM 41.5456 -76.6719 110° East 394 453 25,900 -1,140 Descending New York Center
Mon 07:44:18 AM 41.5103 -76.5414 110° East 389 448 24,700 -934 Descending New York Center
Mon 07:45:19 AM 41.4750 -76.4111 110° East 381 438 24,000 -344 Descending New York Center
Mon 07:46:20 AM 41.4417 -76.2781 108° East 381 438 24,000  Level New York Center
Mon 07:47:17 AM 41.4019 -76.1450 112° Southeast 381 438 24,000 -610 Level New York Center
Mon 07:48:18 AM 41.3639 -76.0147 111° Southeast 381 438 22,800 -1,438 Descending New York Center
Mon 07:49:18 AM 41.3239 -75.8844 112° Southeast 371 427 21,100 -1,700 Descending New York Center
Mon 07:50:18 AM 41.2914 -75.7633 110° East 354 407 19,400 -1,613 Descending New York Center
Mon 07:51:17 AM 41.2628 -75.6564 110° East 347 399 17,900 -1,866 Descending New York Center
Mon 07:52:17 AM 41.2217 -75.5347 114° Southeast 328 377 15,700 -2,182 Descending New York Center
Mon 07:53:18 AM 41.1844 -75.4272 115° Southeast 316 364 13,500 -2,115 Descending New York Center
Mon 07:54:19 AM 41.1547 -75.3344 113° Southeast 316 364 11,400 -2,033 Descending New York Center
Mon 07:55:19 AM 41.1208 -75.2356 114° Southeast 300 345 9,400 -2,136 Descending New York Center
Mon 07:56:17 AM 41.0853 -75.1289 114° Southeast 288 331 7,200 -1,714 Descending New York Center
Mon 07:57:18 AM 41.0553 -75.0414 114° Southeast 270 311 6,000 -590 Descending New York Center
Mon 07:58:19 AM 41.0267 -74.9656 117° Southeast 265 305 6,000 -295 Level New York Center
Mon 07:59:20 AM 40.9944 -74.8756 115° Southeast 265 305 5,400 -1,210 Descending New York Center
Mon 08:00:18 AM 40.9517 -74.7878 123° Southeast 265 305 3,600 -1,220 Descending New York Center
Mon 08:01:18 AM 40.9186 -74.7172 122° Southeast 253 291 3,000 -298 Descending New York Center
Mon 08:02:19 AM 40.8797 -74.6353 122° Southeast 248 285 3,000  Level New York Center
Mon 08:03:26 AM 40.8333 -74.5500 126° Southeast 248 285 3,000  Level New York TRACON
Mon 08:04:26 AM 40.8000 -74.4667 118° Southeast 248 285 3,000  Level New York TRACON
Mon 08:05:26 AM 40.7667 -74.3833 118° Southeast 248 285 3,000 -316 Level New York TRACON
Mon 08:06:20 AM 40.7333 -74.3167 123° Southeast 238 274 2,400 -556 Descending New York TRACON
Mon 08:07:14 AM 40.7167 -74.2500 108° East 229 264 2,000 -421 Descending New York TRACON
Mon 08:08:14 AM 40.7500 -74.2000 49° Northeast 177 204 1,600 -263 Descending New York TRACON
Mon 08:09:08 AM 40.7833 -74.1667 37° Northeast 145 167 1,500 -158 Descending New York TRACON
Mon 08:10:08 AM 40.8000 -74.1333 57° Northeast 134 154 1,300 -400 Descending New York TRACON
Mon 08:11:08 AM 40.8333 -74.1000 37° Northeast 117 135 700 -600 Descending New York TRACON
Mon 08:13:00 AM 40.8501 -74.0608 77° East  Level Estimated
Mon 08:20:00 AM 40.8501 -74.0608 77° East  Level Estimated
Mon 08:21:00 AM 40.8501 -74.0608 77° East  Level Estimated

Login

Don't have an account? Register now (free) for customized features, flight alerts, and more!